Time;durP1;ratioP1;P1;durP2;ratioP2;P2;SDS_P1;SDS_P2;PMS_P1;PMS_P2;Temp;Humidity;BMP_temperature;BMP_pressure;BME280_temperature;BME280_humidity;BME280_pressure;Samples;Min_cycle;Max_cycle;Signal;HPM_P1;HPM_P2
2022/07/01 00:00:23;;;;;;;;;;;;;;;;;;5079768;28;19951;-86
2022/07/01 00:02:48;;;;;;;;;;;;;;;;;;5081540;28;19928;-86
2022/07/01 00:05:13;;;;;;;;;;;;;;;;;;5081646;28;19908;-86
2022/07/01 00:07:38;;;;;;;;;;;;;;;;;;5082023;28;19915;-86
2022/07/01 00:10:03;;;;;;;;;;;;;;;;;;5081448;28;19915;-86
2022/07/01 00:12:28;;;;;;;;;;;;;;;;;;5080841;28;20327;-86
2022/07/01 00:14:53;;;;;;;;;;;;;;;;;;5080118;28;19935;-86
2022/07/01 00:17:19;;;;;;;;;;;;;;;;;;5081239;28;19915;-85
2022/07/01 00:19:44;;;;;;;;;;;;;;;;;;5080863;28;19955;-86
2022/07/01 00:22:09;;;;;;;;;;;;;;;;;;5080055;28;19986;-86
2022/07/01 00:24:34;;;;;;;;;;;;;;;;;;5080942;28;20038;-85
2022/07/01 00:26:59;;;;;;;;;;;;;;;;;;5081246;28;20393;-86
2022/07/01 00:29:24;;;;;;;;;;;;;;;;;;5087789;28;19916;-86
2022/07/01 00:31:49;;;;;;;;;;;;;;;;;;5081252;28;19912;-85
2022/07/01 00:34:14;;;;;;;;;;;;;;;;;;5080475;28;19908;-85
2022/07/01 00:36:40;;;;;;;;;;;;;;;;;;5080647;28;19910;-85
2022/07/01 00:39:05;;;;;;;;;;;;;;;;;;5080743;28;20274;-86
2022/07/01 00:41:30;;;;;;;;;;;;;;;;;;5080942;28;19923;-86
2022/07/01 00:43:57;;;;;;;;;;;;;;;;;;5081037;28;19909;-86
2022/07/01 00:46:23;;;;;;;;;;;;;;;;;;5081410;28;20359;-86
2022/07/01 00:48:48;;;;;;;;;;;;;;;;;;5081301;28;20276;-86
2022/07/01 00:51:14;;;;;;;;;;;;;;;;;;5081423;28;19909;-86
2022/07/01 00:53:39;;;;;;;;;;;;;;;;;;5080992;28;19913;-86
2022/07/01 00:56:04;;;;;;;;;;;;;;;;;;5079554;28;19909;-86
2022/07/01 00:58:29;;;;;;;;;;;;;;;;;;5080574;28;19923;-86
2022/07/01 01:00:54;;;;;;;;;;;;;;;;;;5080638;28;19909;-86
2022/07/01 01:03:19;;;;;;;;;;;;;;;;;;5080313;28;19928;-86
2022/07/01 01:05:45;;;;;;;;;;;;;;;;;;5081124;28;19908;-86
2022/07/01 01:08:10;;;;;;;;;;;;;;;;;;5080821;28;19909;-86
2022/07/01 01:10:35;;;;;;;;;;;;;;;;;;5079940;28;19908;-86
2022/07/01 01:13:00;;;;;;;;;;;;;;;;;;5079661;28;19908;-86
2022/07/01 01:15:27;;;;;;;;;;;;;;;;;;5080651;28;20010;-86
2022/07/01 01:17:52;;;;;;;;;;;;;;;;;;5080536;28;19973;-86
2022/07/01 01:20:17;;;;;;;;;;;;;;;;;;5080088;28;20421;-86
2022/07/01 01:22:42;;;;;;;;;;;;;;;;;;5083717;28;19916;-86
2022/07/01 01:25:07;;;;;;;;;;;;;;;;;;5079485;28;19909;-86
2022/07/01 01:27:32;;;;;;;;;;;;;;;;;;5080739;28;19934;-86
2022/07/01 01:29:58;;;;;;;;;;;;;;;;;;5080145;28;19916;-86
2022/07/01 01:32:23;;;;;;;;;;;;;;;;;;5080152;28;19916;-86
2022/07/01 01:34:48;;;;;;;;;;;;;;;;;;5080134;28;19908;-86
2022/07/01 01:37:13;;;;;;;;;;;;;;;;;;5080046;28;19908;-86
2022/07/01 01:39:38;;;;;;;;;;;;;;;;;;5079729;28;19919;-86
2022/07/01 01:42:03;;;;;;;;;;;;;;;;;;5079835;28;20338;-86
2022/07/01 01:44:28;;;;;;;;;;;;;;;;;;5079618;28;19909;-86
2022/07/01 01:46:53;;;;;;;;;;;;;;;;;;5079826;28;19909;-86
2022/07/01 01:49:19;;;;;;;;;;;;;;;;;;5079671;28;20295;-86
2022/07/01 01:51:44;;;;;;;;;;;;;;;;;;5079803;28;19915;-86
2022/07/01 01:54:09;;;;;;;;;;;;;;;;;;5079548;28;19914;-86
2022/07/01 01:56:34;;;;;;;;;;;;;;;;;;5079234;28;19923;-86
2022/07/01 01:58:59;;;;;;;;;;;;;;;;;;5079135;28;19919;-86
2022/07/01 02:01:24;;;;;;;;;;;;;;;;;;5090201;22;19918;-86
2022/07/01 02:03:49;;;;;;;;;;;;;;;;;;5120000;28;19927;-86
2022/07/01 02:06:15;;;;;;;;;;;;;;;;;;5120049;28;19907;-86
2022/07/01 02:08:40;;;;;;;;;;;;;;;;;;5120476;28;19908;-85
2022/07/01 02:11:05;;;;;;;;;;;;;;;;;;5119098;28;20328;-86
2022/07/01 02:13:30;;;;;;;;;;;;;;;;;;5118610;28;19978;-86
2022/07/01 02:15:56;;;;;;;;;;;;;;;;;;5124486;28;19896;-86
2022/07/01 02:18:21;;;;;;;;;;;;;;;;;;5120446;28;19916;-86
2022/07/01 02:20:46;;;;;;;;;;;;;;;;;;5118545;28;19995;-86
2022/07/01 02:23:11;;;;;;;;;;;;;;;;;;5118320;28;19912;-86
2022/07/01 02:25:37;;;;;;;;;;;;;;;;;;5118770;28;19916;-86
2022/07/01 02:28:02;;;;;;;;;;;;;;;;;;5118337;27;19908;-86
2022/07/01 02:30:27;;;;;;;;;;;;;;;;;;5118221;28;19927;-86
2022/07/01 02:32:52;;;;;;;;;;;;;;;;;;5117951;28;19976;-86
2022/07/01 02:35:17;;;;;;;;;;;;;;;;;;5117680;28;19914;-86
2022/07/01 02:37:43;;;;;;;;;;;;;;;;;;5117928;28;19912;-86
2022/07/01 02:40:09;;;;;;;;;;;;;;;;;;5117881;28;19915;-86
2022/07/01 02:42:37;;;;;;;;;;;;;;;;;;5117163;28;19953;-86
2022/07/01 02:45:02;;;;;;;;;;;;;;;;;;5116243;28;19904;-86
2022/07/01 02:47:27;;;;;;;;;;;;;;;;;;5116000;28;19907;-86
2022/07/01 02:49:52;;;;;;;;;;;;;;;;;;5114742;28;19933;-86
2022/07/01 02:52:18;;;;;;;;;;;;;;;;;;5116169;28;19961;-86
2022/07/01 02:54:43;;;;;;;;;;;;;;;;;;5116432;28;19915;-86
2022/07/01 02:57:08;;;;;;;;;;;;;;;;;;5115988;28;19959;-86
2022/07/01 02:59:33;;;;;;;;;;;;;;;;;;5115928;28;19945;-86
2022/07/01 03:01:59;;;;;;;;;;;;;;;;;;5115762;28;19994;-86
2022/07/01 03:04:24;;;;;;;;;;;;;;;;;;5114790;28;19907;-86
2022/07/01 03:06:49;;;;;;;;;;;;;;;;;;5115873;28;19912;-86
2022/07/01 03:09:14;;;;;;;;;;;;;;;;;;5115867;28;19907;-86
2022/07/01 03:11:39;;;;;;;;;;;;;;;;;;5115799;28;19908;-86
2022/07/01 03:14:04;;;;;;;;;;;;;;;;;;5115969;28;19994;-86
2022/07/01 03:16:29;;;;;;;;;;;;;;;;;;5114367;28;19970;-86
2022/07/01 03:18:54;;;;;;;;;;;;;;;;;;5115750;28;19973;-86
2022/07/01 03:21:19;;;;;;;;;;;;;;;;;;5115910;28;19932;-86
2022/07/01 03:23:45;;;;;;;;;;;;;;;;;;5114396;28;19908;-86
2022/07/01 03:26:10;;;;;;;;;;;;;;;;;;5115703;28;20367;-86
2022/07/01 03:28:35;;;;;;;;;;;;;;;;;;5115279;28;19914;-86
2022/07/01 03:31:00;;;;;;;;;;;;;;;;;;5115473;28;20418;-86
2022/07/01 03:33:26;;;;;;;;;;;;;;;;;;5115608;28;19911;-86
2022/07/01 03:35:51;;;;;;;;;;;;;;;;;;5118431;28;20295;-86
2022/07/01 03:38:16;;;;;;;;;;;;;;;;;;5118547;28;19918;-86
2022/07/01 03:40:41;;;;;;;;;;;;;;;;;;5119808;28;20038;-86
2022/07/01 03:43:06;;;;;;;;;;;;;;;;;;5119842;28;19912;-86
2022/07/01 03:45:31;;;;;;;;;;;;;;;;;;5119478;28;19911;-86
2022/07/01 03:47:56;;;;;;;;;;;;;;;;;;5119340;28;19912;-86
2022/07/01 03:50:22;;;;;;;;;;;;;;;;;;5119502;28;19908;-86
2022/07/01 03:52:47;;;;;;;;;;;;;;;;;;5119894;28;19912;-86
2022/07/01 03:55:12;;;;;;;;;;;;;;;;;;5119648;28;19908;-86
2022/07/01 03:57:37;;;;;;;;;;;;;;;;;;5119693;28;19908;-86
2022/07/01 04:00:02;;;;;;;;;;;;;;;;;;5120033;28;19911;-86
2022/07/01 04:02:27;;;;;;;;;;;;;;;;;;5119766;28;19919;-86
2022/07/01 04:04:55;;;;;;;;;;;;;;;;;;5119636;28;20281;-86
2022/07/01 04:07:20;;;;;;;;;;;;;;;;;;5120251;28;20006;-86
2022/07/01 04:09:45;;;;;;;;;;;;;;;;;;5119909;28;19946;-86
2022/07/01 04:12:12;;;;;;;;;;;;;;;;;;5120075;28;19908;-87
2022/07/01 04:14:37;;;;;;;;;;;;;;;;;;5120123;28;19908;-86
2022/07/01 04:17:02;;;;;;;;;;;;;;;;;;5120326;28;19915;-87
2022/07/01 04:19:27;;;;;;;;;;;;;;;;;;5127290;28;20365;-86
2022/07/01 04:24:36;;;;;;;;;;;;;;;;;;5119818;28;19929;-86
2022/07/01 04:27:01;;;;;;;;;;;;;;;;;;5119398;28;19908;-86
2022/07/01 04:29:28;;;;;;;;;;;;;;;;;;5119649;28;19907;-86
2022/07/01 04:31:54;;;;;;;;;;;;;;;;;;5119616;27;20268;-86
2022/07/01 04:34:19;;;;;;;;;;;;;;;;;;5119517;28;19907;-86
2022/07/01 04:36:44;;;;;;;;;;;;;;;;;;5119369;28;19912;-86
2022/07/01 04:39:09;;;;;;;;;;;;;;;;;;5119142;28;19915;-86
2022/07/01 04:44:18;;;;;;;;;;;;;;;;;;5119791;28;20320;-86
2022/07/01 04:46:43;;;;;;;;;;;;;;;;;;5119080;28;19908;-86
2022/07/01 04:49:08;;;;;;;;;;;;;;;;;;5119122;28;19908;-86
2022/07/01 04:51:34;;;;;;;;;;;;;;;;;;5119514;28;19907;-86
2022/07/01 04:53:59;;;;;;;;;;;;;;;;;;5117961;28;19982;-86
2022/07/01 04:56:26;;;;;;;;;;;;;;;;;;5119459;28;19951;-86
2022/07/01 04:58:51;;;;;;;;;;;;;;;;;;5125437;28;19918;-86
2022/07/01 05:01:17;;;;;;;;;;;;;;;;;;5118711;28;20354;-86
2022/07/01 05:03:42;;;;;;;;;;;;;;;;;;5118893;28;19948;-86
2022/07/01 05:06:07;;;;;;;;;;;;;;;;;;5118934;28;20381;-86
2022/07/01 05:08:32;;;;;;;;;;;;;;;;;;5118826;28;19930;-86
2022/07/01 05:10:57;;;;;;;;;;;;;;;;;;5118839;28;19950;-86
2022/07/01 05:13:23;;;;;;;;;;;;;;;;;;5118560;28;19908;-86
2022/07/01 05:15:48;;;;;;;;;;;;;;;;;;5118754;28;19982;-86
2022/07/01 05:23:41;;;;;;;;;;;;;;;;;;5100167;28;19934;-86
2022/07/01 05:26:06;;;;;;;;;;;;;;;;;;5106750;28;19999;-86
2022/07/01 05:28:31;;;;;;;;;;;;;;;;;;5106883;28;19915;-86
2022/07/01 05:30:56;;;;;;;;;;;;;;;;;;5104629;28;19908;-86
2022/07/01 05:33:25;;;;;;;;;;;;;;;;;;5117640;28;19912;-86
2022/07/01 05:35:51;;;;;;;;;;;;;;;;;;5116773;28;20355;-86
2022/07/01 05:38:16;;;;;;;;;;;;;;;;;;5114073;28;19973;-86
2022/07/01 05:40:41;;;;;;;;;;;;;;;;;;5117161;28;19915;-86
2022/07/01 05:43:06;;;;;;;;;;;;;;;;;;5118036;28;19934;-86
2022/07/01 05:45:31;;;;;;;;;;;;;;;;;;5113326;28;19969;-86
2022/07/01 05:47:56;;;;;;;;;;;;;;;;;;5107578;28;20262;-87
2022/07/01 05:50:22;;;;;;;;;;;;;;;;;;5109103;28;19980;-86
2022/07/01 05:52:47;;;;;;;;;;;;;;;;;;5111937;28;20806;-87
2022/07/01 05:55:12;;;;;;;;;;;;;;;;;;5110240;28;19972;-87
2022/07/01 05:57:37;;;;;;;;;;;;;;;;;;5106658;28;20291;-86
2022/07/01 06:00:02;;;;;;;;;;;;;;;;;;5100350;28;19912;-87
2022/07/01 06:02:27;;;;;;;;;;;;;;;;;;5107179;28;19927;-87
2022/07/01 06:04:52;;;;;;;;;;;;;;;;;;5106874;28;19938;-87
2022/07/01 06:07:17;;;;;;;;;;;;;;;;;;5103756;28;20422;-87
2022/07/01 06:09:42;;;;;;;;;;;;;;;;;;5100875;28;19920;-87
2022/07/01 06:12:08;;;;;;;;;;;;;;;;;;5093234;28;19927;-87
2022/07/01 06:14:33;;;;;;;;;;;;;;;;;;5064724;28;23353;-87
2022/07/01 06:16:58;;;;;;;;;;;;;;;;;;5035820;28;19937;-87
2022/07/01 06:19:23;;;;;;;;;;;;;;;;;;5016304;28;19928;-86
2022/07/01 06:21:48;;;;;;;;;;;;;;;;;;5001431;27;19974;-87
2022/07/01 06:24:13;;;;;;;;;;;;;;;;;;4972418;28;20036;-86
2022/07/01 06:26:38;;;;;;;;;;;;;;;;;;4942965;28;21320;-87
2022/07/01 06:29:04;;;;;;;;;;;;;;;;;;5001550;28;21185;-87
2022/07/01 06:31:29;;;;;;;;;;;;;;;;;;4986480;28;19927;-86
2022/07/01 06:33:54;;;;;;;;;;;;;;;;;;4988803;28;21313;-86
2022/07/01 06:36:19;;;;;;;;;;;;;;;;;;4988426;28;19927;-86
2022/07/01 06:38:44;;;;;;;;;;;;;;;;;;4981769;28;19924;-85
2022/07/01 06:41:28;;;;;;;;;;;;;;;;;;4988658;28;22097;-85
2022/07/01 06:43:53;;;;;;;;;;;;;;;;;;4989836;28;20058;-85
2022/07/01 06:46:18;;;;;;;;;;;;;;;;;;4998631;28;19923;-85
2022/07/01 06:48:43;;;;;;;;;;;;;;;;;;4994082;28;19942;-86
2022/07/01 06:51:09;;;;;;;;;;;;;;;;;;5003010;28;22692;-87
2022/07/01 06:53:34;;;;;;;;;;;;;;;;;;5004309;27;19920;-86
2022/07/01 06:55:59;;;;;;;;;;;;;;;;;;5002138;28;19927;-86
2022/07/01 06:58:24;;;;;;;;;;;;;;;;;;4994447;28;19930;-87
2022/07/01 07:00:49;;;;;;;;;;;;;;;;;;5007066;28;19920;-86
2022/07/01 07:03:14;;;;;;;;;;;;;;;;;;4994261;28;21073;-87
2022/07/01 07:05:40;;;;;;;;;;;;;;;;;;4998244;28;19927;-85
2022/07/01 07:08:05;;;;;;;;;;;;;;;;;;4991775;28;21314;-86
2022/07/01 07:10:30;;;;;;;;;;;;;;;;;;4988054;28;20939;-85
2022/07/01 07:12:55;;;;;;;;;;;;;;;;;;4999808;28;20048;-88
2022/07/01 07:15:21;;;;;;;;;;;;;;;;;;5001385;28;19960;-87
2022/07/01 07:17:46;;;;;;;;;;;;;;;;;;5009989;28;20844;-87
2022/07/01 07:20:11;;;;;;;;;;;;;;;;;;5018443;28;20696;-86
2022/07/01 07:22:36;;;;;;;;;;;;;;;;;;5013675;28;19920;-88
2022/07/01 07:25:01;;;;;;;;;;;;;;;;;;4997639;28;19920;-87
2022/07/01 07:27:26;;;;;;;;;;;;;;;;;;4995244;28;19920;-86
2022/07/01 07:29:51;;;;;;;;;;;;;;;;;;4996304;28;21828;-86
2022/07/01 07:32:17;;;;;;;;;;;;;;;;;;4991763;28;20056;-86
2022/07/01 07:34:42;;;;;;;;;;;;;;;;;;4993539;28;22612;-88
2022/07/01 07:37:07;;;;;;;;;;;;;;;;;;4995398;28;19924;-89
2022/07/01 07:39:32;;;;;;;;;;;;;;;;;;4992747;28;22607;-88
2022/07/01 07:41:57;;;;;;;;;;;;;;;;;;5000300;28;21568;-89
2022/07/01 07:44:22;;;;;;;;;;;;;;;;;;5000724;28;19927;-88
2022/07/01 07:46:47;;;;;;;;;;;;;;;;;;4996704;28;20038;-89
2022/07/01 07:49:13;;;;;;;;;;;;;;;;;;4993280;28;20834;-89
2022/07/01 07:51:38;;;;;;;;;;;;;;;;;;4991459;28;20066;-88
2022/07/01 07:54:03;;;;;;;;;;;;;;;;;;4995736;28;20037;-90
2022/07/01 07:56:28;;;;;;;;;;;;;;;;;;4972490;28;19926;-89
2022/07/01 07:58:54;;;;;;;;;;;;;;;;;;4996266;28;20773;-90
2022/07/01 08:01:19;;;;;;;;;;;;;;;;;;4984160;28;19920;-89
2022/07/01 08:03:47;;;;;;;;;;;;;;;;;;4983535;28;20073;-88
2022/07/01 08:06:12;;;;;;;;;;;;;;;;;;4989551;28;20060;-89
2022/07/01 08:11:38;;;;;;;;;;;;;;;;;;;;;
2022/07/01 08:14:03;;;;;;;;;;;;;;;;;;5010000;22;20955;-89
2022/07/01 08:16:35;;;;;;;;;;;;;;;;;;4952930;28;19920;-89
2022/07/01 08:21:56;;;;;;;;;;;;;;;;;;;;;
2022/07/01 08:24:29;;;;;;;;;;;;;;;;;;4888220;28;20013;-89
2022/07/01 08:26:57;;;;;;;;;;;;;;;;;;4902324;28;20819;-89
2022/07/01 08:29:22;;;;;;;;;;;;;;;;;;4929887;28;19956;-90
2022/07/01 08:31:48;;;;;;;;;;;;;;;;;;4960572;28;21487;-87
2022/07/01 08:34:13;;;;;;;;;;;;;;;;;;4975113;28;20587;-88
2022/07/01 08:36:38;;;;;;;;;;;;;;;;;;4982904;28;20196;-89
2022/07/01 08:39:03;;;;;;;;;;;;;;;;;;5009653;28;19977;-89
2022/07/01 08:41:28;;;;;;;;;;;;;;;;;;5010255;28;19933;-89
2022/07/01 08:43:57;;;;;;;;;;;;;;;;;;5005854;28;21441;-88
2022/07/01 08:46:22;;;;;;;;;;;;;;;;;;4996952;28;20014;-87
2022/07/01 08:48:47;;;;;;;;;;;;;;;;;;4989301;28;19920;-89
2022/07/01 08:51:12;;;;;;;;;;;;;;;;;;4979629;28;19920;-89
2022/07/01 08:53:37;;;;;;;;;;;;;;;;;;4981936;28;20587;-89
2022/07/01 08:58:46;;;;;;;;;;;;;;;;;;5001705;28;19933;-89
2022/07/01 09:01:11;;;;;;;;;;;;;;;;;;4976666;28;20030;-88
2022/07/01 09:03:37;;;;;;;;;;;;;;;;;;4982449;28;20047;-89
2022/07/01 09:06:04;;;;;;;;;;;;;;;;;;4985754;28;19963;-89
2022/07/01 09:08:29;;;;;;;;;;;;;;;;;;4992536;28;19924;-89
2022/07/01 09:10:55;;;;;;;;;;;;;;;;;;4984355;28;20051;-88
2022/07/01 09:13:20;;;;;;;;;;;;;;;;;;4985448;28;20039;-88
2022/07/01 09:15:45;;;;;;;;;;;;;;;;;;4986382;28;22092;-88
2022/07/01 09:18:10;;;;;;;;;;;;;;;;;;4998593;28;19924;-88
2022/07/01 09:20:38;;;;;;;;;;;;;;;;;;4979700;28;20027;-88
2022/07/01 09:23:03;;;;;;;;;;;;;;;;;;4968327;28;19930;-88
2022/07/01 09:25:29;;;;;;;;;;;;;;;;;;4912272;28;22029;-89
2022/07/01 09:27:54;;;;;;;;;;;;;;;;;;4970024;28;19966;-89
2022/07/01 09:30:19;;;;;;;;;;;;;;;;;;4972559;28;19920;-88
2022/07/01 09:32:45;;;;;;;;;;;;;;;;;;4975276;28;19920;-88
2022/07/01 09:35:10;;;;;;;;;;;;;;;;;;4973043;28;22284;-88
2022/07/01 09:37:35;;;;;;;;;;;;;;;;;;4978370;28;19927;-89
2022/07/01 09:40:00;;;;;;;;;;;;;;;;;;4980161;28;19924;-88
2022/07/01 09:42:25;;;;;;;;;;;;;;;;;;4986069;28;19920;-89
2022/07/01 09:44:50;;;;;;;;;;;;;;;;;;4982454;28;19962;-88
2022/07/01 09:47:16;;;;;;;;;;;;;;;;;;4982758;28;19963;-89
2022/07/01 09:49:41;;;;;;;;;;;;;;;;;;4981740;28;20698;-89
2022/07/01 09:52:06;;;;;;;;;;;;;;;;;;4981409;28;21542;-88
2022/07/01 09:54:31;;;;;;;;;;;;;;;;;;4971044;28;20991;-88
2022/07/01 09:56:56;;;;;;;;;;;;;;;;;;4983373;28;19920;-88
2022/07/01 09:59:21;;;;;;;;;;;;;;;;;;4984951;28;21213;-89
2022/07/01 10:01:47;;;;;;;;;;;;;;;;;;4986359;28;22205;-89
2022/07/01 10:04:12;;;;;;;;;;;;;;;;;;4989959;28;20128;-90
2022/07/01 10:06:37;;;;;;;;;;;;;;;;;;4989693;28;21464;-88
2022/07/01 10:09:02;;;;;;;;;;;;;;;;;;5004850;28;23316;-88
2022/07/01 10:11:49;;;;;;;;;;;;;;;;;;5026703;28;20122;-90
2022/07/01 10:14:13;;;;;;;;;;;;;;;;;;5013848;28;19981;-89
2022/07/01 10:19:27;;;;;;;;;;;;;;;;;;4995844;28;20067;-88
2022/07/01 10:22:13;;;;;;;;;;;;;;;;;;4996904;28;22586;-89
2022/07/01 10:24:40;;;;;;;;;;;;;;;;;;4995024;28;20033;-88
2022/07/01 10:32:39;;;;;;;;;;;;;;;;;;4780637;22;36594;-45
2022/07/01 10:35:04;;;;;;;;;;;;;;;;;;4670230;28;41214;-45
2022/07/01 10:37:29;;;;;;;;;;;;;;;;;;4619283;28;44850;-46
2022/07/01 10:39:55;;;;;;;;;;;;;;;;;;4485540;28;41629;-46
2022/07/01 10:42:20;;;;;;;;;;;;;;;;;;4553714;28;38597;-47
2022/07/01 10:44:46;;;;;;;;;;;;;;;;;;4628202;28;29463;-45
2022/07/01 10:47:11;;;;;;;;;;;;;;;;;;4624915;28;34108;-45
2022/07/01 10:49:36;;;;;;;;;;;;;;;;;;4678015;28;35387;-45
2022/07/01 10:52:01;;;;;;;;;;;;;;;;;;4732083;28;25336;-45
2022/07/01 10:54:26;;;;;;;;;;;;;;;;;;4723831;28;26346;-45
2022/07/01 10:56:51;;;;;;;;;;;;;;;;;;4700758;28;38449;-45
2022/07/01 10:59:17;;;;;;;;;;;;;;;;;;4704002;28;22555;-45
2022/07/01 11:01:42;;;;;;;;;;;;;;;;;;4734449;28;22404;-45
2022/07/01 11:04:07;;;;;;;;;;;;;;;;;;4758420;28;21225;-44
2022/07/01 11:06:38;;;;;;;;;;;;;;;;;;4759968;28;26918;-46
2022/07/01 11:09:04;;;;;;;;;;;;;;;;;;4758320;28;28856;-43
2022/07/01 11:11:29;;;;;;;;;;;;;;;;;;4769163;28;30130;-44
2022/07/01 11:13:54;;;;;;;;;;;;;;;;;;4777328;28;32079;-46
2022/07/01 11:16:19;;;;;;;;;;;;;;;;;;4774635;28;23189;-46
2022/07/01 11:18:44;;;;;;;;;;;;;;;;;;4783706;28;19924;-45
2022/07/01 11:21:09;;;;;;;;;;;;;;;;;;4768258;28;32078;-46
2022/07/01 11:23:35;;;;;;;;;;;;;;;;;;4780541;28;35059;-44
2022/07/01 11:26:00;;;;;;;;;;;;;;;;;;4783230;28;24679;-45
2022/07/01 11:28:25;;;;;;;;;;;;;;;;;;4738168;28;21481;-46
2022/07/01 11:30:50;;;;;;;;;;;;;;;;;;4688477;28;25542;-46
2022/07/01 11:33:15;;;;;;;;;;;;;;;;;;4666211;28;29325;-44
2022/07/01 11:41:08;;;;;;;;;;;;;;;;;;4768060;28;35675;-46
2022/07/01 11:43:33;;;;;;;;;;;;;;;;;;4784573;28;37943;-44
2022/07/01 11:46:01;;;;;;;;;;;;;;;;;;4758260;28;38147;-45
2022/07/01 11:48:27;;;;;;;;;;;;;;;;;;4769991;28;35840;-45
2022/07/01 11:50:52;;;;;;;;;;;;;;;;;;4770438;28;41611;-46
2022/07/01 11:53:17;;;;;;;;;;;;;;;;;;4761771;28;33474;-45
2022/07/01 11:55:42;;;;;;;;;;;;;;;;;;4768656;28;30062;-46
2022/07/01 11:58:07;;;;;;;;;;;;;;;;;;4780749;28;21893;-47
2022/07/01 12:00:32;;;;;;;;;;;;;;;;;;4766111;28;19928;-48
2022/07/01 12:02:57;;;;;;;;;;;;;;;;;;4771000;28;19948;-46
2022/07/01 12:05:22;;;;;;;;;;;;;;;;;;4778836;28;24643;-46
2022/07/01 12:07:48;;;;;;;;;;;;;;;;;;4772617;28;21489;-47
2022/07/01 12:10:13;;;;;;;;;;;;;;;;;;4776252;28;30216;-47
2022/07/01 12:12:38;;;;;;;;;;;;;;;;;;4801699;28;19920;-47
2022/07/01 12:15:03;;;;;;;;;;;;;;;;;;4783481;28;19927;-46
2022/07/01 12:17:31;;;;;;;;;;;;;;;;;;4750170;28;32524;-45
2022/07/01 12:19:56;;;;;;;;;;;;;;;;;;4672439;28;22458;-48
2022/07/01 12:22:23;;;;;;;;;;;;;;;;;;4607825;28;19939;-46
2022/07/01 12:24:48;;;;;;;;;;;;;;;;;;4647278;28;22617;-46
2022/07/01 12:27:13;;;;;;;;;;;;;;;;;;4735266;28;32495;-47
2022/07/01 12:29:38;;;;;;;;;;;;;;;;;;4808045;28;30196;-46
2022/07/01 12:32:03;;;;;;;;;;;;;;;;;;4829801;28;22221;-47
2022/07/01 12:34:29;;;;;;;;;;;;;;;;;;4872953;28;19971;-45
2022/07/01 12:36:54;;;;;;;;;;;;;;;;;;4908769;28;19921;-49
2022/07/01 12:39:19;;;;;;;;;;;;;;;;;;4897528;28;19928;-47
2022/07/01 12:41:45;;;;;;;;;;;;;;;;;;4917095;28;20388;-46
2022/07/01 12:44:10;;;;;;;;;;;;;;;;;;4903535;28;19921;-45
2022/07/01 12:46:35;;;;;;;;;;;;;;;;;;4938475;28;19920;-50
2022/07/01 12:49:00;;;;;;;;;;;;;;;;;;4956854;28;20066;-47
2022/07/01 12:51:25;;;;;;;;;;;;;;;;;;4940245;28;22774;-48
2022/07/01 12:53:50;;;;;;;;;;;;;;;;;;4911693;28;21968;-47
2022/07/01 12:56:15;;;;;;;;;;;;;;;;;;4918709;28;20337;-47
2022/07/01 12:58:40;;;;;;;;;;;;;;;;;;4876283;28;20550;-47
2022/07/01 13:01:06;;;;;;;;;;;;;;;;;;4904951;28;19926;-49
2022/07/01 13:03:31;;;;;;;;;;;;;;;;;;4910194;28;19928;-45
2022/07/01 13:05:58;;;;;;;;;;;;;;;;;;4901958;28;22364;-48
2022/07/01 13:08:23;;;;;;;;;;;;;;;;;;4910715;28;21655;-48
2022/07/01 13:10:48;;;;;;;;;;;;;;;;;;4883219;28;23313;-49
2022/07/01 13:13:14;;;;;;;;;;;;;;;;;;4885365;28;19928;-46
2022/07/01 13:15:39;;;;;;;;;;;;;;;;;;4915499;28;20782;-47
2022/07/01 13:18:04;;;;;;;;;;;;;;;;;;4924425;28;20538;-49
2022/07/01 13:20:29;;;;;;;;;;;;;;;;;;4944190;28;19927;-48
2022/07/01 13:22:55;;;;;;;;;;;;;;;;;;4982633;28;20852;-48
2022/07/01 13:25:20;;;;;;;;;;;;;;;;;;5003757;28;19920;-49
2022/07/01 13:27:45;;;;;;;;;;;;;;;;;;5011885;28;19921;-48
2022/07/01 13:30:10;;;;;;;;;;;;;;;;;;4993803;28;19928;-48
2022/07/01 13:32:35;;;;;;;;;;;;;;;;;;5017620;28;20381;-47
2022/07/01 13:35:02;;;;;;;;;;;;;;;;;;5014969;28;19921;-45
2022/07/01 13:37:27;;;;;;;;;;;;;;;;;;5011208;28;19990;-48
2022/07/01 13:39:52;;;;;;;;;;;;;;;;;;5027376;28;19925;-47
2022/07/01 13:42:17;;;;;;;;;;;;;;;;;;5023229;28;20026;-48
2022/07/01 13:44:43;;;;;;;;;;;;;;;;;;5035127;28;20283;-46
2022/07/01 13:47:09;;;;;;;;;;;;;;;;;;5032347;28;19956;-46
2022/07/01 13:49:34;;;;;;;;;;;;;;;;;;5037945;28;19932;-48
2022/07/01 13:51:59;;;;;;;;;;;;;;;;;;5039066;28;19920;-45
2022/07/01 13:54:25;;;;;;;;;;;;;;;;;;5039689;28;20678;-47
2022/07/01 13:56:50;;;;;;;;;;;;;;;;;;5035029;28;19952;-46
2022/07/01 13:59:15;;;;;;;;;;;;;;;;;;5023398;28;19925;-47
2022/07/01 14:01:40;;;;;;;;;;;;;;;;;;5038899;28;19928;-47
2022/07/01 14:04:05;;;;;;;;;;;;;;;;;;5035639;28;20590;-46
2022/07/01 14:06:30;;;;;;;;;;;;;;;;;;5034106;28;20430;-46
2022/07/01 14:08:55;;;;;;;;;;;;;;;;;;5034465;28;20039;-48
2022/07/01 14:11:20;;;;;;;;;;;;;;;;;;5042378;28;19956;-46
2022/07/01 14:13:46;;;;;;;;;;;;;;;;;;5038254;28;20136;-46
2022/07/01 14:16:11;;;;;;;;;;;;;;;;;;5044915;28;19931;-45
2022/07/01 14:18:36;;;;;;;;;;;;;;;;;;5053907;28;20272;-47
2022/07/01 14:21:01;;;;;;;;;;;;;;;;;;5059499;28;20292;-46
2022/07/01 14:23:26;;;;;;;;;;;;;;;;;;5052382;28;19940;-48
2022/07/01 14:25:51;;;;;;;;;;;;;;;;;;5050605;28;20372;-45
2022/07/01 14:28:16;;;;;;;;;;;;;;;;;;5054727;28;19931;-43
2022/07/01 14:30:41;;;;;;;;;;;;;;;;;;5053569;28;19927;-42
2022/07/01 14:33:06;;;;;;;;;;;;;;;;;;5050540;28;19925;-43
2022/07/01 14:35:32;;;;;;;;;;;;;;;;;;5057594;28;19912;-42
2022/07/01 14:37:58;;;;;;;;;;;;;;;;;;5049748;28;19920;-42
2022/07/01 14:40:23;;;;;;;;;;;;;;;;;;5039208;28;20000;-42
2022/07/01 14:42:48;;;;;;;;;;;;;;;;;;5054199;28;21248;-42
2022/07/01 14:45:13;;;;;;;;;;;;;;;;;;5057218;28;19966;-42
2022/07/01 14:47:39;;;;;;;;;;;;;;;;;;5059863;28;19921;-42
2022/07/01 14:50:04;;;;;;;;;;;;;;;;;;5059227;28;19918;-41
2022/07/01 14:52:29;;;;;;;;;;;;;;;;;;5052057;28;19913;-42
2022/07/01 14:54:54;;;;;;;;;;;;;;;;;;5061120;28;19912;-42
2022/07/01 14:57:19;;;;;;;;;;;;;;;;;;5061613;28;19909;-41
2022/07/01 14:59:44;;;;;;;;;;;;;;;;;;5067661;28;19924;-42
2022/07/01 15:02:10;;;;;;;;;;;;;;;;;;5067423;28;19963;-42
2022/07/01 15:04:35;;;;;;;;;;;;;;;;;;5067253;28;20017;-42
2022/07/01 15:07:00;;;;;;;;;;;;;;;;;;5071965;28;19913;-42
2022/07/01 15:09:25;;;;;;;;;;;;;;;;;;5073504;28;19909;-42
2022/07/01 15:11:50;;;;;;;;;;;;;;;;;;5067550;28;20020;-42
2022/07/01 15:14:15;;;;;;;;;;;;;;;;;;5060083;28;19960;-42
2022/07/01 15:16:40;;;;;;;;;;;;;;;;;;5071753;28;19920;-42
2022/07/01 15:19:05;;;;;;;;;;;;;;;;;;5073257;28;20279;-42
2022/07/01 15:21:31;;;;;;;;;;;;;;;;;;5073400;28;19912;-42
2022/07/01 15:23:56;;;;;;;;;;;;;;;;;;5074100;28;19912;-42
2022/07/01 15:26:21;;;;;;;;;;;;;;;;;;5070503;28;19955;-41
2022/07/01 15:28:46;;;;;;;;;;;;;;;;;;5070078;28;19948;-44
2022/07/01 15:31:11;;;;;;;;;;;;;;;;;;5077072;28;19921;-42
2022/07/01 15:33:37;;;;;;;;;;;;;;;;;;5077614;28;20572;-42
2022/07/01 15:36:02;;;;;;;;;;;;;;;;;;5078258;28;19940;-41
2022/07/01 15:38:27;;;;;;;;;;;;;;;;;;5077811;28;19920;-42
2022/07/01 15:40:52;;;;;;;;;;;;;;;;;;5078365;28;20398;-41
2022/07/01 15:43:17;;;;;;;;;;;;;;;;;;5078544;28;19960;-42
2022/07/01 15:45:42;;;;;;;;;;;;;;;;;;5078170;28;19938;-41
2022/07/01 15:48:10;;;;;;;;;;;;;;;;;;5077363;28;19920;-41
2022/07/01 15:50:35;;;;;;;;;;;;;;;;;;5077062;28;19913;-42
2022/07/01 15:53:00;;;;;;;;;;;;;;;;;;5078554;28;20252;-42
2022/07/01 15:55:26;;;;;;;;;;;;;;;;;;5077673;28;19912;-43
2022/07/01 15:57:52;;;;;;;;;;;;;;;;;;5076953;28;20011;-42
2022/07/01 16:00:19;;;;;;;;;;;;;;;;;;5076695;28;19917;-41
2022/07/01 16:02:44;;;;;;;;;;;;;;;;;;5078119;28;19916;-42
2022/07/01 16:05:11;;;;;;;;;;;;;;;;;;5077871;28;20436;-42
2022/07/01 16:07:36;;;;;;;;;;;;;;;;;;5077583;28;19926;-41
2022/07/01 16:10:02;;;;;;;;;;;;;;;;;;5077781;28;19916;-43
2022/07/01 16:12:27;;;;;;;;;;;;;;;;;;5077986;28;19970;-42
2022/07/01 16:14:52;;;;;;;;;;;;;;;;;;5077430;28;19995;-41
2022/07/01 16:17:17;;;;;;;;;;;;;;;;;;5077885;28;19912;-43
2022/07/01 16:19:42;;;;;;;;;;;;;;;;;;5078019;28;19912;-43
2022/07/01 16:22:07;;;;;;;;;;;;;;;;;;5076793;28;19916;-43
2022/07/01 16:24:32;;;;;;;;;;;;;;;;;;5077521;28;19967;-43
2022/07/01 16:26:57;;;;;;;;;;;;;;;;;;5074481;28;19917;-43
2022/07/01 16:29:22;;;;;;;;;;;;;;;;;;5076116;28;19999;-44
2022/07/01 16:31:48;;;;;;;;;;;;;;;;;;5076952;28;19929;-44
2022/07/01 16:34:13;;;;;;;;;;;;;;;;;;5076957;28;19921;-43
2022/07/01 16:36:42;;;;;;;;;;;;;;;;;;5072682;28;20026;-43
2022/07/01 16:39:14;;;;;;;;;;;;;;;;;;5077229;28;20287;-43
2022/07/01 16:41:39;;;;;;;;;;;;;;;;;;5076804;28;19908;-44
2022/07/01 16:44:05;;;;;;;;;;;;;;;;;;5077361;28;19909;-44
2022/07/01 16:46:30;;;;;;;;;;;;;;;;;;5077408;28;19908;-44
2022/07/01 16:48:55;;;;;;;;;;;;;;;;;;5077095;28;19924;-44
2022/07/01 16:51:21;;;;;;;;;;;;;;;;;;5074846;28;19912;-44
2022/07/01 16:53:46;;;;;;;;;;;;;;;;;;5077138;28;20051;-44
2022/07/01 16:56:11;;;;;;;;;;;;;;;;;;5077245;28;19923;-45
2022/07/01 16:58:36;;;;;;;;;;;;;;;;;;5076925;28;19912;-44
2022/07/01 17:01:01;;;;;;;;;;;;;;;;;;5077113;28;20276;-44
2022/07/01 17:03:27;;;;;;;;;;;;;;;;;;5061508;28;19909;-43
2022/07/01 17:05:52;;;;;;;;;;;;;;;;;;5056925;28;20003;-44